الصفحة الرئيسية
METAR-TAF:

METAR-TAF

مطار :

كرايستشيرش, نيوزيلندا

دائرة عرض: 43-29S, خط طول: 172-33E, ارتفاع: 38 متر

مراقبة الطقس الحالي

تاريخ ووقت الإصدار 44 دقيقة قبل الساعة 22:00UTC
ريح 6 عقدة من الشمال/الشمال الشرقي
درجة الحرارة 13°درجة مئوية
الرطوبة 88%
ضغط 1014 hPa
الرؤية 10 كم أو أكثر

METAR: NZCH 242200Z AUTO 03006KT 9999 SCT008/// 13/11 Q1014 NOSIG

زمن: 10:44 (22:44 UTC)

توقعات

تاريخ ووقت الإصدار 1ساعة و 19 دقيقة قبل الساعة 21:25UTC
التوقعات صالحة من24 الساعة 21 UTC إلى 25 الساعة 18 UTC
ريح 10 عقدة من الشرق/الشمال الشرقي
الرؤية 10 كم أو أكثر
غيوم قليلة على ارتفاع 1000 قدم
أصبح
من 25 الساعة 09 UTC إلى 25 الساعة 11 UTC
ريح 5 عقدة من الشمال

TAF: NZCH 242125Z 2421/2518 06010KT 9999 FEW010 BECMG 2509/2511 36005KT

أرصاد الطقس والتوقعات من أكثر من 4000 مطار (تقارير الطقس للمطار METAR والتنبؤ بالطقس بالمطارTAF).

المحطات المتاحة هي النقط الصفراء والحمراء على الخريطة.

حرك المؤشر فوق النقطة لمعرفة اسم المحطة.

ثم انقر لمعرفة أرصاد وتوقعات الطقس.

لتغيير الخارطة: اضغط على الأزرار الخضراء مع رمز الصليب الأسود للتكبير. على الزر الأخضر مع شرطة للتصغير، أو على الأسهم الخضراء للخرائط المجاورة.


METAR-TAF: